Alanson, MI (49706)

4:18 PM EDT on March 30, 2015 (GMT -0400)
Alanson Swing Bridge | | Change Station
CLOSE
Current Station
Personal Weather Station
Location: Alanson, MI
Elevation: 597 ft
Nearby Weather Stations

Elev 597 ft 45.44 °N, 84.79 °W | Updated 11 seconds ago

Mostly Cloudy
Mostly Cloudy
40.5 °F
Feels Like 40 °F
N
2.2
Wind Variable Wind from ENE
Gusts 5.4 mph

Today
High -- | Low -- °F
--% Chance of Precip.
Yesterday
High -- | Low -- °F
Precip. -- in
7:23 AM 8:04 PM
Waxing Gibbous, 82% visible
Pressure 29.93 in
Visibility 10.0 miles
Clouds Clear
Windchill 40 °F
Dew Point 26 °F
Humidity 56%
Rainfall 0.25 in
Snow Depth Not available.
UV 5 out of 12
Pollen 3.60 out of 12
Air Quality Not available.
Flu Activity Not available.
METAR KMGN 302015Z AUTO 23009G15KT 10SM CLR 02/M01 A2993 RMK AO2 T00241016

More Conditions Fewer Conditions

Pressure 29.93 in
Visibility 10.0 miles
Clouds Clear
Windchill 40 °F
Dew Point 26 °F
Humidity 56%
Rainfall 0.25 in
Snow Depth Not available.
UV 5 out of 12
Pollen 3.60 out of 12
Air Quality Not available.
Flu Activity Not available.
METAR KMGN 302015Z AUTO 23009G15KT 10SM CLR 02/M01 A2993 RMK AO2 T00241016

More Conditions Fewer Conditions

Nowcast | as of 4:00 PM EDT on March 30, 2015

At 5 PM...partly cloudy. Temperature 37. Northwest winds 10 mph. At 7 PM...partly cloudy. Temperature 35. Northwest winds 7 mph. At 9 PM...partly cloudy. Temperature 32. Light winds. At 11 PM...partly cloudy. Temperature 29. Light winds.

×

10-Day Weather Forecast

Almanac

Astronomy

Mar. 30, 2015 Rise Set
Actual Time
Civil Twilight
Nautical Twilight
Astronomical Twilight
Moon
Length of Visible Light
Length of Day
Tomorrow will be .
, % of the Moon is Illuminated

Today's Extremes

State Highs State Lows

Community

WunderPhotos

Upload Photos

1,809,579 photos uploaded!

WunderBlogs® & News

Nearby

Air Quality

  Air Quality AQ Index Pollutant
Not available.

Snow Depth

Station Depth Elevation

Earthquake Activity

City Distance Mag. Time & Date
Minimum magnitude displayed is 2.5.

Coastal Water Temperatures

Place Temperature

Stations

Nearby Weather Stations

Station Location Temp. Windchill Dew Point Humidity Wind Precip. Elev Updated Type